createdAt,value
2019-04-19T00:03:51.262Z,99.90
2019-04-19T00:06:40.813Z,99.90
2019-04-19T00:09:31.129Z,99.90
2019-04-19T00:12:20.069Z,99.90
2019-04-19T00:14:46.582Z,99.90
2019-04-19T00:17:30.834Z,99.90
2019-04-19T00:20:31.357Z,99.90
2019-04-19T00:23:07.477Z,99.90
2019-04-19T00:25:36.659Z,99.90
2019-04-19T00:28:24.392Z,99.90
2019-04-19T00:31:17.120Z,99.90
2019-04-19T00:33:47.840Z,99.90
2019-04-19T00:36:26.019Z,99.90
2019-04-19T00:42:52.806Z,99.90
2019-04-19T00:48:36.455Z,99.90
2019-04-19T00:51:16.543Z,99.90
2019-04-19T00:53:57.214Z,99.90
2019-04-19T00:56:39.804Z,99.90
2019-04-19T00:59:14.326Z,99.90
2019-04-19T01:02:00.806Z,99.90
2019-04-19T01:04:38.026Z,99.90
2019-04-19T01:07:26.270Z,99.90
2019-04-19T01:10:21.458Z,99.90
2019-04-19T01:12:59.336Z,99.90
2019-04-19T01:15:35.410Z,99.90
2019-04-19T01:18:23.293Z,99.90
2019-04-19T01:20:54.760Z,99.90
2019-04-19T01:23:41.260Z,99.90
2019-04-19T01:26:18.670Z,99.90
2019-04-19T01:29:06.271Z,99.90
2019-04-19T01:31:43.865Z,99.90
2019-04-19T01:34:26.271Z,99.90
2019-04-19T01:37:11.358Z,99.90
2019-04-19T01:40:05.823Z,99.90
2019-04-19T01:42:50.278Z,99.90
2019-04-19T01:45:56.826Z,99.90
2019-04-19T01:48:42.946Z,99.90
2019-04-19T01:51:37.896Z,99.90
2019-04-19T01:54:33.123Z,99.90
2019-04-19T01:57:03.499Z,99.90
2019-04-19T01:59:47.457Z,99.90
2019-04-19T02:02:26.674Z,99.90
2019-04-19T02:05:13.157Z,99.90
2019-04-19T02:07:56.552Z,99.90
2019-04-19T02:10:46.417Z,99.90
2019-04-19T02:13:26.193Z,99.90
2019-04-19T02:16:02.266Z,99.90
2019-04-19T02:18:43.080Z,99.90
2019-04-19T02:21:27.670Z,99.90
2019-04-19T02:24:07.148Z,99.90
2019-04-19T02:26:54.267Z,99.90
2019-04-19T02:29:32.046Z,99.90
2019-04-19T02:32:32.602Z,99.90
2019-04-19T02:35:21.994Z,99.90
2019-04-19T02:38:03.562Z,99.90
2019-04-19T02:41:01.232Z,99.90
2019-04-19T02:43:39.846Z,99.90
2019-04-19T02:46:23.058Z,99.90
2019-04-19T02:49:03.538Z,99.90
2019-04-19T02:51:37.188Z,99.90
2019-04-19T02:54:30.880Z,99.90
2019-04-19T02:57:49.010Z,99.90
2019-04-19T03:00:37.176Z,99.90
2019-04-19T03:03:14.873Z,99.90
2019-04-19T03:05:47.411Z,99.90
2019-04-19T03:08:14.479Z,99.90
2019-04-19T03:11:08.513Z,99.90
2019-04-19T03:13:54.555Z,99.90
2019-04-19T03:16:46.809Z,99.90
2019-04-19T03:19:15.459Z,99.90
2019-04-19T03:22:01.526Z,99.90
2019-04-19T03:24:47.843Z,99.90
2019-04-19T03:27:20.877Z,99.90
2019-04-19T03:30:07.536Z,99.90
2019-04-19T03:35:46.741Z,99.90
2019-04-19T03:38:18.897Z,99.90
2019-04-19T03:41:03.538Z,99.90
2019-04-19T03:43:51.954Z,99.90
2019-04-19T03:46:32.146Z,99.90
2019-04-19T03:49:24.053Z,99.90
2019-04-19T03:52:08.407Z,99.90
2019-04-19T03:54:39.968Z,99.90
2019-04-19T03:57:18.397Z,99.90
2019-04-19T03:59:48.551Z,99.90
2019-04-19T04:02:34.676Z,99.90
2019-04-19T04:05:14.601Z,99.90
2019-04-19T04:11:17.952Z,99.90
2019-04-19T04:14:12.408Z,99.90
2019-04-19T04:17:02.006Z,99.90
2019-04-19T04:19:44.078Z,99.90
2019-04-19T04:22:30.118Z,99.90
2019-04-19T04:25:15.086Z,99.90
2019-04-19T04:28:01.981Z,99.90
2019-04-19T04:30:43.568Z,99.90
2019-04-19T04:33:31.068Z,99.90
2019-04-19T04:36:23.705Z,99.90
2019-04-19T04:38:44.316Z,99.90
2019-04-19T04:41:27.919Z,99.90
2019-04-19T04:44:23.381Z,99.90
2019-04-19T04:53:03.130Z,99.90
2019-04-19T04:55:52.538Z,99.90
2019-04-19T04:58:35.770Z,99.90
2019-04-19T05:01:25.305Z,99.90
2019-04-19T05:04:11.832Z,99.90
2019-04-19T05:06:57.968Z,99.90
2019-04-19T05:09:40.909Z,99.90
2019-04-19T05:12:26.960Z,99.90
2019-04-19T05:14:58.351Z,99.90
2019-04-19T05:17:51.323Z,99.90
2019-04-19T05:20:30.277Z,99.90
2019-04-19T05:23:09.731Z,99.90
2019-04-19T05:25:59.538Z,99.90
2019-04-19T05:28:37.096Z,99.90
2019-04-19T05:31:06.907Z,99.90
2019-04-19T05:34:08.124Z,99.90
2019-04-19T05:36:53.616Z,99.90
2019-04-19T05:42:49.252Z,99.90
2019-04-19T05:45:46.810Z,99.90
2019-04-19T05:48:15.850Z,99.90
2019-04-19T05:51:09.307Z,99.90
2019-04-19T05:53:35.766Z,99.90
2019-04-19T05:56:09.141Z,99.90
2019-04-19T05:59:01.502Z,99.90
2019-04-19T06:01:53.788Z,99.90
2019-04-19T06:04:32.331Z,99.90
2019-04-19T06:07:20.408Z,99.90
2019-04-19T06:09:40.928Z,99.90
2019-04-19T06:12:27.860Z,99.90
2019-04-19T06:15:22.842Z,99.90
2019-04-19T06:18:24.639Z,99.90
2019-04-19T06:21:17.360Z,99.90
2019-04-19T06:24:14.820Z,99.90
2019-04-19T06:29:17.402Z,99.90
2019-04-19T06:32:07.701Z,99.90
2019-04-19T06:34:45.635Z,99.90
2019-04-19T06:37:14.395Z,99.90
2019-04-19T06:39:59.655Z,99.90
2019-04-19T06:42:43.151Z,99.90
2019-04-19T06:45:30.438Z,99.90
2019-04-19T06:48:05.633Z,99.90
2019-04-19T06:50:44.822Z,99.90
2019-04-19T06:53:23.198Z,99.90
2019-04-19T06:56:10.888Z,99.90
2019-04-19T06:58:55.816Z,99.90
2019-04-19T07:01:37.216Z,99.90
2019-04-19T07:04:12.767Z,99.90
2019-04-19T07:07:21.009Z,99.90
2019-04-19T07:10:02.567Z,99.90
2019-04-19T07:12:40.189Z,99.90
2019-04-19T07:15:35.220Z,99.90
2019-04-19T07:17:57.153Z,99.90
2019-04-19T07:20:45.168Z,99.90
2019-04-19T07:23:37.392Z,99.90
2019-04-19T07:26:15.587Z,99.90
2019-04-19T07:28:38.566Z,99.90
2019-04-19T07:31:20.062Z,99.90
2019-04-19T07:34:14.718Z,99.90
2019-04-19T07:37:02.024Z,99.90
2019-04-19T07:39:55.676Z,99.90
2019-04-19T07:42:28.026Z,99.90
2019-04-19T07:45:13.851Z,99.90
2019-04-19T07:48:03.742Z,99.90
2019-04-19T07:50:51.099Z,99.90
2019-04-19T07:53:31.288Z,99.90
2019-04-19T07:56:17.567Z,99.90
2019-04-19T07:59:16.639Z,99.90
2019-04-19T08:04:48.690Z,99.90
2019-04-19T08:07:29.142Z,99.90
2019-04-19T08:10:03.876Z,99.90
2019-04-19T08:12:47.567Z,99.90
2019-04-19T08:15:38.753Z,99.90
2019-04-19T08:28:45.214Z,99.90
2019-04-19T08:31:21.019Z,99.90
2019-04-19T08:34:08.351Z,99.90
2019-04-19T08:36:53.253Z,99.90
2019-04-19T08:39:46.029Z,99.90
2019-04-19T08:42:30.872Z,99.90
2019-04-19T08:44:59.645Z,99.90
2019-04-19T08:50:50.672Z,99.90
2019-04-19T08:53:43.036Z,99.90
2019-04-19T08:56:26.540Z,99.90
2019-04-19T08:59:21.675Z,99.90
2019-04-19T09:01:59.073Z,99.10
2019-04-19T09:04:42.704Z,99.30
2019-04-19T09:12:48.291Z,98.60
2019-04-19T09:15:30.522Z,99.70
2019-04-19T09:20:54.784Z,98.80
2019-04-19T09:23:33.280Z,98.90
2019-04-19T09:26:23.538Z,98.00
2019-04-19T09:29:09.893Z,98.80
2019-04-19T09:31:43.976Z,98.30
2019-04-19T09:34:17.407Z,96.70
2019-04-19T09:37:05.499Z,97.40
2019-04-19T09:39:50.112Z,97.60
2019-04-19T09:42:36.805Z,97.60
2019-04-19T09:45:05.515Z,96.60
2019-04-19T09:47:46.739Z,96.30
2019-04-19T09:50:45.238Z,97.20
2019-04-19T09:53:38.700Z,96.70
2019-04-19T09:56:12.253Z,95.50
2019-04-19T09:58:49.102Z,96.10
2019-04-19T10:01:21.186Z,94.20
2019-04-19T10:04:04.110Z,96.20
2019-04-19T10:06:44.710Z,95.40
2019-04-19T10:09:26.038Z,94.10
2019-04-19T10:12:09.125Z,95.80
2019-04-19T10:14:51.455Z,95.70
2019-04-19T10:17:32.405Z,96.00
2019-04-19T10:20:13.006Z,94.50
2019-04-19T10:22:55.105Z,95.10
2019-04-19T10:25:40.828Z,93.90
2019-04-19T10:28:22.519Z,93.50
2019-04-19T10:31:22.154Z,95.30
2019-04-19T10:34:05.896Z,94.50
2019-04-19T10:36:48.638Z,93.70
2019-04-19T10:39:29.807Z,94.60
2019-04-19T10:42:12.282Z,95.10
2019-04-19T10:44:54.046Z,95.20
2019-04-19T10:47:35.635Z,92.50
2019-04-19T10:50:28.218Z,93.20
2019-04-19T10:53:00.685Z,93.20
2019-04-19T10:55:44.947Z,92.60
2019-04-19T10:58:25.524Z,92.90
2019-04-19T11:01:07.692Z,92.80
2019-04-19T11:03:48.674Z,92.60
2019-04-19T11:06:31.373Z,91.30
2019-04-19T11:09:12.585Z,91.90
2019-04-19T11:11:53.764Z,91.00
2019-04-19T11:14:34.479Z,90.80
2019-04-19T11:17:15.930Z,91.40
2019-04-19T11:20:13.915Z,89.00
2019-04-19T11:22:39.824Z,90.60
2019-04-19T11:25:22.055Z,91.00
2019-04-19T11:28:03.153Z,90.00
2019-04-19T11:31:03.047Z,90.10
2019-04-19T11:33:43.488Z,90.00
2019-04-19T11:36:24.235Z,89.70
2019-04-19T11:39:07.164Z,87.80
2019-04-19T11:41:49.259Z,86.70
2019-04-19T11:44:30.996Z,85.90
2019-04-19T11:47:13.296Z,88.50
2019-04-19T11:49:53.859Z,90.00
2019-04-19T11:52:39.810Z,89.10
2019-04-19T11:55:22.234Z,86.10
2019-04-19T11:58:04.126Z,82.80
2019-04-19T12:01:03.762Z,86.90
2019-04-19T12:03:45.831Z,89.60
2019-04-19T12:06:27.689Z,84.20
2019-04-19T12:09:10.127Z,85.70
2019-04-19T12:11:50.799Z,84.00
2019-04-19T12:14:32.737Z,83.00
2019-04-19T12:17:13.633Z,81.20
2019-04-19T12:20:00.076Z,82.70
2019-04-19T12:22:37.859Z,81.10
2019-04-19T12:25:19.571Z,80.70
2019-04-19T12:28:01.629Z,82.10
2019-04-19T12:30:45.204Z,81.20
2019-04-19T12:33:25.036Z,81.10
2019-04-19T12:36:05.612Z,80.90
2019-04-19T12:38:46.613Z,82.00
2019-04-19T12:41:28.055Z,78.50
2019-04-19T12:44:09.028Z,76.60
2019-04-19T12:46:50.778Z,80.50
2019-04-19T12:49:31.169Z,80.30
2019-04-19T12:52:12.336Z,78.10
2019-04-19T12:54:54.262Z,77.00
2019-04-19T12:57:39.344Z,80.40
2019-04-19T13:00:21.591Z,79.40
2019-04-19T13:03:07.647Z,79.70
2019-04-19T13:05:49.348Z,80.20
2019-04-19T13:08:30.389Z,80.80
2019-04-19T13:11:11.267Z,82.10
2019-04-19T13:13:52.205Z,80.40
2019-04-19T13:16:32.891Z,76.50
2019-04-19T13:19:14.214Z,75.00
2019-04-19T13:21:56.367Z,76.50
2019-04-19T13:24:38.406Z,75.80
2019-04-19T13:27:19.214Z,76.40
2019-04-19T13:30:12.065Z,77.70
2019-04-19T13:32:44.015Z,76.10
2019-04-19T13:35:25.402Z,75.50
2019-04-19T13:38:25.450Z,76.30
2019-04-19T13:44:05.024Z,74.60
2019-04-19T13:46:46.693Z,77.20
2019-04-19T13:49:28.596Z,77.00
2019-04-19T13:52:10.607Z,74.00
2019-04-19T13:54:52.568Z,72.30
2019-04-19T13:57:33.724Z,73.70
2019-04-19T14:00:20.326Z,74.40
2019-04-19T14:03:03.255Z,74.20
2019-04-19T14:05:44.204Z,74.90
2019-04-19T14:08:24.957Z,76.20
2019-04-19T14:11:06.810Z,74.30
2019-04-19T14:13:52.200Z,73.00
2019-04-19T14:16:30.991Z,74.80
2019-04-19T14:19:13.357Z,78.10
2019-04-19T14:21:55.059Z,73.10
2019-04-19T14:24:35.601Z,70.60
2019-04-19T14:27:17.228Z,71.50
2019-04-19T14:29:59.339Z,71.50
2019-04-19T14:32:41.052Z,72.20
2019-04-19T14:35:22.292Z,72.50
2019-04-19T14:38:03.293Z,72.60
2019-04-19T14:40:44.479Z,69.80
2019-04-19T14:43:25.127Z,69.80
2019-04-19T14:46:06.807Z,70.20
2019-04-19T14:48:49.046Z,70.80
2019-04-19T14:51:32.400Z,70.10
2019-04-19T14:54:12.809Z,70.70
2019-04-19T14:56:54.315Z,69.50
2019-04-19T14:59:36.626Z,71.30
2019-04-19T15:05:27.667Z,67.60
2019-04-19T15:08:09.069Z,68.50
2019-04-19T15:10:49.812Z,68.70
2019-04-19T15:13:30.750Z,68.90
2019-04-19T15:16:11.428Z,69.30
2019-04-19T15:18:52.200Z,70.90
2019-04-19T15:21:34.223Z,73.00
2019-04-19T15:24:15.134Z,74.90
2019-04-19T15:26:56.873Z,71.70
2019-04-19T15:29:38.868Z,70.00
2019-04-19T15:32:20.573Z,68.50
2019-04-19T15:35:01.311Z,69.60
2019-04-19T15:37:43.533Z,69.00
2019-04-19T15:40:24.346Z,72.20
2019-04-19T15:43:05.365Z,71.50
2019-04-19T15:45:47.605Z,72.20
2019-04-19T15:48:37.908Z,71.60
2019-04-19T15:51:20.120Z,72.60
2019-04-19T15:53:54.920Z,71.40
2019-04-19T15:56:36.703Z,71.90
2019-04-19T15:59:18.885Z,74.10
2019-04-19T16:02:20.035Z,72.00
2019-04-19T16:14:12.191Z,72.50
2019-04-19T16:16:53.492Z,72.20
2019-04-19T16:19:34.499Z,70.80
2019-04-19T16:22:16.096Z,71.90
2019-04-19T16:24:56.995Z,72.00
2019-04-19T16:27:41.391Z,71.90
2019-04-19T16:30:20.719Z,72.50
2019-04-19T16:33:01.796Z,71.50
2019-04-19T16:35:42.505Z,72.80
2019-04-19T16:38:24.251Z,72.00
2019-04-19T16:41:04.767Z,73.00
2019-04-19T16:43:47.194Z,73.90
2019-04-19T16:46:30.643Z,74.80
2019-04-19T16:49:10.837Z,74.10
2019-04-19T16:51:56.155Z,72.70
2019-04-19T16:54:34.360Z,74.10
2019-04-19T16:57:21.555Z,74.30
2019-04-19T16:59:58.396Z,73.00
2019-04-19T17:02:38.816Z,73.00
2019-04-19T17:05:20.899Z,73.60
2019-04-19T17:08:01.648Z,73.90
2019-04-19T17:10:42.834Z,74.30
2019-04-19T17:13:24.651Z,75.60
2019-04-19T17:22:17.404Z,75.20
2019-04-19T17:24:55.181Z,75.50
2019-04-19T17:27:36.868Z,76.20
2019-04-19T17:30:18.001Z,75.20
2019-04-19T17:32:59.583Z,76.40
2019-04-19T17:35:41.844Z,75.00
2019-04-19T17:38:30.228Z,75.90
2019-04-19T17:41:07.386Z,76.80
2019-04-19T17:43:47.887Z,77.30
2019-04-19T17:46:28.854Z,78.20
2019-04-19T17:49:10.748Z,77.70
2019-04-19T17:52:02.296Z,78.40
2019-04-19T17:54:51.378Z,78.50
2019-04-19T17:57:17.467Z,78.40
2019-04-19T17:59:58.516Z,78.70
2019-04-19T18:02:41.198Z,78.20
2019-04-19T18:05:22.674Z,79.10
2019-04-19T18:08:04.271Z,79.70
2019-04-19T18:10:50.367Z,79.90
2019-04-19T18:13:29.023Z,79.40
2019-04-19T18:16:09.592Z,80.30
2019-04-19T18:18:52.650Z,80.20
2019-04-19T18:21:37.405Z,80.70
2019-04-19T18:24:21.263Z,82.30
2019-04-19T18:27:05.577Z,83.60
2019-04-19T18:29:42.079Z,86.80
2019-04-19T18:32:30.105Z,88.70
2019-04-19T18:35:18.621Z,89.80
2019-04-19T18:37:55.519Z,90.60
2019-04-19T18:40:37.385Z,91.20
2019-04-19T18:43:27.947Z,91.60
2019-04-19T18:46:00.937Z,92.10
2019-04-19T18:48:41.941Z,92.30
2019-04-19T18:51:32.570Z,92.50
2019-04-19T18:54:17.039Z,93.30
2019-04-19T18:56:55.291Z,94.10
2019-04-19T18:59:32.203Z,94.10
2019-04-19T19:02:16.139Z,94.20
2019-04-19T19:05:05.216Z,93.70
2019-04-19T19:07:56.275Z,94.10
2019-04-19T19:10:46.594Z,94.80
2019-04-19T19:13:34.523Z,95.20
2019-04-19T19:16:22.636Z,95.40
2019-04-19T19:19:16.622Z,95.70
2019-04-19T19:22:00.122Z,95.80
2019-04-19T19:25:07.555Z,95.70
2019-04-19T19:27:39.894Z,95.90
2019-04-19T19:30:49.028Z,96.00
2019-04-19T19:33:44.334Z,97.00
2019-04-19T19:36:34.259Z,97.60
2019-04-19T19:39:26.465Z,98.00
2019-04-19T19:45:20.211Z,99.10
2019-04-19T19:48:41.230Z,99.90
2019-04-19T19:51:20.635Z,99.90
2019-04-19T19:54:38.899Z,99.90
2019-04-19T19:57:07.754Z,99.90
2019-04-19T19:59:41.939Z,99.90
2019-04-19T20:02:42.768Z,99.90
2019-04-19T20:05:24.887Z,99.90
2019-04-19T20:08:07.881Z,99.90
2019-04-19T20:10:56.485Z,99.90
2019-04-19T20:13:49.614Z,99.90
2019-04-19T20:16:36.639Z,99.90
2019-04-19T20:19:25.824Z,99.90
2019-04-19T20:22:15.763Z,99.90
2019-04-19T20:25:36.456Z,99.90
2019-04-19T20:28:23.233Z,99.90
2019-04-19T20:31:07.218Z,99.90
2019-04-19T20:34:00.027Z,99.90
2019-04-19T20:36:46.996Z,99.90
2019-04-19T20:40:01.919Z,99.90
2019-04-19T20:43:06.295Z,99.90
2019-04-19T20:45:42.072Z,99.90
2019-04-19T20:48:26.821Z,99.90
2019-04-19T20:54:41.276Z,99.90
2019-04-19T20:57:37.762Z,99.90
2019-04-19T21:03:26.837Z,99.90
2019-04-19T21:06:13.327Z,99.90
2019-04-19T21:09:01.228Z,99.90
2019-04-19T21:11:51.407Z,99.90
2019-04-19T21:14:43.163Z,99.90
2019-04-19T21:17:36.446Z,99.90
2019-04-19T21:20:24.576Z,99.90
2019-04-19T21:23:16.683Z,99.90
2019-04-19T21:26:02.377Z,99.90
2019-04-19T21:28:52.418Z,99.90
2019-04-19T21:31:45.882Z,99.90
2019-04-19T21:34:26.257Z,99.90
2019-04-19T21:37:06.456Z,99.90
2019-04-19T21:39:48.694Z,99.90
2019-04-19T21:42:29.652Z,99.90
2019-04-19T21:45:11.625Z,99.90
2019-04-19T21:47:55.061Z,99.90
2019-04-19T21:50:39.464Z,99.90
2019-04-19T21:53:18.733Z,99.90
2019-04-19T21:56:05.976Z,99.90
2019-04-19T21:58:47.477Z,99.90
2019-04-19T22:01:25.906Z,99.90
2019-04-19T22:04:10.882Z,99.90
2019-04-19T22:06:56.146Z,99.90
2019-04-19T22:09:34.309Z,99.90
2019-04-19T22:12:16.763Z,99.90
2019-04-19T22:15:01.809Z,99.90
2019-04-19T22:17:41.491Z,99.90
2019-04-19T22:20:24.660Z,99.90
2019-04-19T22:23:09.027Z,99.90
2019-04-19T22:25:55.554Z,99.90
2019-04-19T22:28:31.204Z,99.90
2019-04-19T22:31:12.568Z,99.90
2019-04-19T22:33:54.680Z,99.90
2019-04-19T22:36:41.691Z,99.90
2019-04-19T22:39:19.013Z,99.90
2019-04-19T22:42:01.925Z,99.90
2019-04-19T22:44:43.284Z,99.90
2019-04-19T22:47:28.455Z,99.90
2019-04-19T22:50:09.956Z,99.90
2019-04-19T22:52:50.322Z,99.90
2019-04-19T22:55:43.478Z,99.90
2019-04-19T22:58:20.511Z,99.90
2019-04-19T23:00:59.020Z,99.90
2019-04-19T23:03:42.366Z,99.90
2019-04-19T23:06:27.461Z,99.90
2019-04-19T23:09:13.012Z,99.90
2019-04-19T23:11:48.713Z,99.90
2019-04-19T23:14:50.073Z,99.90
2019-04-19T23:17:37.766Z,99.90
2019-04-19T23:20:17.725Z,99.90
2019-04-19T23:22:55.599Z,99.90
2019-04-19T23:25:40.143Z,99.90
2019-04-19T23:28:27.454Z,99.90
2019-04-19T23:31:05.362Z,99.90
2019-04-19T23:33:49.828Z,99.90
2019-04-19T23:36:27.671Z,99.90
2019-04-19T23:39:12.456Z,99.90
2019-04-19T23:41:51.160Z,99.90
2019-04-19T23:44:31.825Z,99.90
2019-04-19T23:47:12.703Z,99.90
2019-04-19T23:49:54.693Z,99.90
2019-04-19T23:52:39.656Z,99.90
2019-04-19T23:55:20.219Z,99.90
2019-04-19T23:58:01.325Z,99.90
